x

Long Key, Fl (lonf1) Weather Station

11:00pm - Tue 7th Jul 2015 All times are CDT. -4 hours from GMT.

  • Wind
    14mph, 16mph gusts
  • Sea Temp 88°f
  • Air Temp 84°f
  • Sea Pressure 1021.2mb
  • Long Key, Fl
  • Long Key, Fl

More Historic Weather Station data

Upgrade to MSW Pro to gain access to the past 30 days of data for over 8000 Wavebouys and Weather Stations around the globe.

Join Pro

Comparision Forecast

View Surf forecast
   
Tue 07/07 11:00pm 14 16 mph 1021.2mb 88f 84f
10:00pm 11 14 mph 1020.9mb 88f 84f
9:00pm 10 11 mph 1020.6mb 88f 85f
8:00pm 13 15 mph 1020.1mb 88f 84f
7:00pm 14 15 mph 1019.7mb 88f 85f
6:00pm 11 14 mph 1019.6mb 89f 85f
5:00pm 10 11 mph 1020.4mb 88f 85f
4:00pm 13 14 mph 1021mb 88f 84f
3:00pm 8 10 mph 1021.8mb 88f 85f
2:00pm 9 11 mph 1021.6mb 87f 85f
1:00pm 8 10 mph 1022mb 87f 86f
12:00pm 8 9 mph 1022.3mb 87f 86f
11:00am 9 10 mph 1022.2mb 87f 85f
10:00am 9 11 mph 1021.9mb 86f 85f
9:00am 9 13 mph 1021.5mb 86f 85f
8:00am 13 14 mph 1021mb 86f 84f
7:00am 14 16 mph 1020.3mb 86f 84f
6:00am 11 13 mph 1019.6mb 86f 84f
5:00am 10 11 mph 1019.3mb 87f 84f
4:00am 11 13 mph 1019.3mb 87f 84f
3:00am 11 13 mph 1019.5mb 87f 84f
2:00am 11 13 mph 1019.8mb 87f 84f
1:00am 13 14 mph 1020.1mb 87f 84f
12:00am 11 14 mph 1020.6mb 87f 85f
Mon 07/06 11:00pm 8 9 mph 1021.1mb 88f 84f
10:00pm 8 9 mph 1021.2mb 88f 84f
9:00pm 7 8 mph 1020.8mb 88f 84f
8:00pm 10 14 mph 1020mb 88f 84f
7:00pm 14 16 mph 1019.7mb 88f 84f
6:00pm 11 13 mph 1020.4mb 88f 83f
5:00pm 20 25 mph 1021.8mb 88f 82f
4:00pm 9 11 mph 1021.1mb 88f 86f
3:00pm 9 10 mph 1021.1mb 88f 86f
2:00pm 10 11 mph 1021.7mb 87f 86f
1:00pm 9 10 mph 1022.2mb 87f 86f
12:00pm 8 10 mph 1022.3mb 86f 85f
11:00am 11 14 mph 1022mb 86f 85f
10:00am 17 18 mph 1021.1mb 86f 85f
9:00am 18 21 mph 1020.5mb 86f 84f
8:00am 17 20 mph 1020.3mb 86f 84f
7:00am 17 20 mph 1020.2mb 86f 84f
6:00am 14 16 mph 1020.7mb 86f 82f
5:00am 16 20 mph 1020.7mb 87f 81f
4:00am 20 22 mph 1020.7mb 87f 80f
3:00am 20 22 mph 1021mb 87f 81f
2:00am 9 10 mph 1021.5mb 87f 85f
1:00am 10 13 mph 1022.2mb 88f 83f
12:00am 10 11 mph 1022mb 88f 85f
Sun 07/05 11:00pm 11 13 mph 1021.7mb 88f 85f
10:00pm 11 13 mph 1021.3mb 88f 85f
9:00pm 13 14 mph 1020.5mb 88f 85f
8:00pm 13 14 mph 1020mb 88f 85f
7:00pm 16 18 mph 1019.8mb 89f 85f
6:00pm 14 16 mph 1019.8mb 89f 85f
5:00pm 16 18 mph 1020.2mb 89f 85f
4:00pm 15 16 mph 1020.4mb 89f 85f
3:00pm 14 16 mph 1020.9mb 88f 85f
2:00pm 11 13 mph 1021.6mb 88f 85f
1:00pm 13 15 mph 1021.8mb 87f 85f
12:00pm 10 13 mph 1022.2mb 87f 85f
11:00am 11 13 mph 1021.8mb 87f 85f
10:00am 13 15 mph 1021.4mb 86f 85f
9:00am 11 13 mph 1021.5mb 86f 85f
8:00am 13 15 mph 1020.9mb 86f 85f
7:00am 11 14 mph 1020.3mb 87f 84f
6:00am 15 16 mph 1019.8mb 87f 84f
5:00am 14 15 mph 1019.5mb 87f 84f
4:00am 11 14 mph 1019.3mb 87f 84f
3:00am 13 14 mph 1019.7mb 87f 84f
2:00am 10 13 mph 1020.2mb 88f 85f
1:00am 11 13 mph 1020.7mb 88f 85f
12:00am 11 13 mph 1020.7mb 88f 85f
Sat 07/04 11:00pm 13 14 mph 1020.3mb 88f 85f
10:00pm 11 13 mph 1020mb 88f 85f
9:00pm 11 14 mph 1019.5mb 88f 85f
8:00pm 11 14 mph 1019mb 89f 85f
7:00pm 13
mph
1018.6mb 89f 85f
6:00pm 14 15 mph 1018.6mb 89f 85f
5:00pm 14 15 mph 1018.6mb 89f 85f
4:00pm 13 16 mph 1019.4mb 89f 85f
3:00pm 13 15 mph 1019.7mb 88f 85f
2:00pm 15 17 mph 1020mb 88f 85f
1:00pm 11 14 mph 1020.4mb 88f 85f
12:00pm 13
mph
1020.5mb 87f 85f
11:00am 11 13 mph 1020.2mb 87f 85f
10:00am 10 11 mph 1020mb 86f 85f
9:00am 11 14 mph 1019.7mb 86f 85f
8:00am 10 11 mph 1019.4mb 86f 84f
7:00am 10 11 mph 1018.9mb 86f 84f
6:00am 11 13 mph 1018.5mb 87f 84f
5:00am 8 9 mph 1018.6mb 87f 84f